首页
METAR-TAF:

METAR-TAF

机场 :

金奈国际机场

金奈, 印度

纬度: 13-00N, 经度: 080-11E, 海拔: 10米

当前天气观测

该预报发布于44分钟前的19:30 UTC
风速5节,风向西
温度 26°C
湿度 74%
气压 1003 hPa
能見度: 6000
散云层高于2000英尺
多云层高于10000英尺

METAR: VOMM 201930Z 27005KT 6000 SCT020 BKN100 26/21 Q1003 NOSIG

时间: 01:44 (20:14 UTC)

预报

该预报发布于3小时和14分钟前的17:00 UTC
预报有效从20日的 18点(UTC)到 21日的 24点(UTC)
风速10节,风向西
能見度: 4000
散云层高于2000英尺
多云层高于10000英尺
短暂存在
从 20日的 18点(UTC)到 20日的 24点(UTC)
散云层高于2000英尺
多云层高于10000英尺
成为
从 21日的 03点(UTC)到 21日的 04点(UTC)
风速10节,风向西,有时为25节阵风
能見度: 6000
短暂存在
从 21日的 09点(UTC)到 21日的 15点(UTC)
散云层高于2000英尺
多云层高于10000英尺
成为
从 21日的 15点(UTC)到 21日的 16点(UTC)
风速10节,风向西
能見度: 4000

TAF: VOMM 201700Z 2018/2124 27010KT 4000 -DZ/BR SCT020 BKN100 TEMPO 2018/2024 SCT020 FEW025TCU/CB BKN100 BECMG 2103/2104 27010G25KT 6000 TEMPO 2109/2115 SCT020 FEW025TCU/CB BKN100 BECMG 2115/2116 27010KT 4000 -DZ/BR

超过4000个机场的气象观测和天气预报(METAR&TAF报告)。

可查询的气象台以黄色和红色小点在地图上表示。

将鼠标移到小点上方,可查看气象台名称。

然后点击查看天气观测和预报。

如需切换地图:点击带黑十字的绿色按钮放大地图;点击带横线的绿色按钮缩小地图;或者点击绿色箭头查看邻近地区的地图。


METAR-TAF: